createdAt,value
2022-10-20T00:01:15.034Z,8.08
2022-10-20T00:03:43.189Z,8.30
2022-10-20T00:06:13.298Z,8.02
2022-10-20T00:08:41.535Z,8.50
2022-10-20T00:11:10.671Z,8.18
2022-10-20T00:13:38.861Z,8.30
2022-10-20T00:16:06.794Z,7.83
2022-10-20T00:18:34.498Z,7.90
2022-10-20T00:21:05.985Z,7.85
2022-10-20T00:23:33.661Z,7.85
2022-10-20T00:26:06.161Z,7.89
2022-10-20T00:28:34.069Z,7.89
2022-10-20T00:31:03.973Z,7.38
2022-10-20T00:33:31.316Z,7.18
2022-10-20T00:36:03.251Z,7.93
2022-10-20T00:38:31.153Z,7.43
2022-10-20T00:41:03.349Z,7.39
2022-10-20T00:43:54.427Z,7.07
2022-10-20T00:46:38.381Z,6.80
2022-10-20T00:49:19.255Z,6.78
2022-10-20T00:51:47.076Z,6.62
2022-10-20T00:54:18.336Z,6.95
2022-10-20T00:56:47.248Z,6.84
2022-10-20T00:59:17.601Z,7.03
2022-10-20T01:01:45.810Z,6.63
2022-10-20T01:04:13.271Z,6.69
2022-10-20T01:06:40.933Z,6.82
2022-10-20T01:09:08.648Z,6.72
2022-10-20T01:11:58.962Z,6.48
2022-10-20T01:14:48.481Z,6.56
2022-10-20T01:17:15.691Z,6.64
2022-10-20T01:20:13.073Z,6.64
2022-10-20T01:22:59.174Z,6.77
2022-10-20T01:25:40.464Z,6.71
2022-10-20T01:28:23.794Z,6.44
2022-10-20T01:30:57.274Z,6.64
2022-10-20T01:33:50.371Z,6.57
2022-10-20T01:36:32.942Z,6.58
2022-10-20T01:39:05.151Z,6.43
2022-10-20T01:42:00.657Z,6.38
2022-10-20T01:44:28.902Z,6.26
2022-10-20T01:46:57.248Z,6.72
2022-10-20T01:49:24.976Z,6.40
2022-10-20T01:51:53.121Z,6.35
2022-10-20T01:54:22.902Z,6.18
2022-10-20T01:57:15.299Z,6.12
2022-10-20T01:59:47.754Z,6.55
2022-10-20T02:02:46.296Z,6.35
2022-10-20T02:05:44.376Z,6.45
2022-10-20T02:08:17.169Z,6.45
2022-10-20T02:10:50.101Z,6.17
2022-10-20T02:13:19.426Z,6.16
2022-10-20T02:15:51.073Z,6.09
2022-10-20T02:18:22.574Z,6.18
2022-10-20T02:20:51.881Z,5.95
2022-10-20T02:23:19.258Z,5.61
2022-10-20T02:25:51.627Z,6.04
2022-10-20T02:28:20.077Z,5.87
2022-10-20T02:30:47.742Z,5.72
2022-10-20T02:33:16.965Z,5.99
2022-10-20T02:35:53.904Z,5.76
2022-10-20T02:38:21.738Z,5.66
2022-10-20T02:40:49.342Z,5.71
2022-10-20T02:43:16.677Z,5.59
2022-10-20T02:45:43.977Z,5.60
2022-10-20T02:48:11.603Z,5.45
2022-10-20T02:50:38.959Z,5.59
2022-10-20T02:53:06.445Z,5.49
2022-10-20T02:55:34.024Z,5.92
2022-10-20T02:58:01.424Z,5.55
2022-10-20T03:00:31.098Z,5.53
2022-10-20T03:02:58.696Z,5.45
2022-10-20T03:05:27.064Z,5.27
2022-10-20T03:07:54.413Z,5.27
2022-10-20T03:10:22.163Z,5.22
2022-10-20T03:12:49.715Z,5.23
2022-10-20T03:15:17.641Z,5.16
2022-10-20T03:17:45.375Z,5.30
2022-10-20T03:20:12.799Z,5.27
2022-10-20T03:22:40.333Z,5.39
2022-10-20T03:25:08.410Z,5.24
2022-10-20T03:27:36.309Z,5.33
2022-10-20T03:30:04.316Z,5.19
2022-10-20T03:32:32.254Z,5.16
2022-10-20T03:34:59.755Z,5.12
2022-10-20T03:37:28.789Z,5.20
2022-10-20T03:39:57.766Z,5.32
2022-10-20T03:42:25.214Z,5.20
2022-10-20T03:44:52.698Z,5.35
2022-10-20T03:47:20.441Z,5.54
2022-10-20T03:49:47.813Z,5.83
2022-10-20T03:52:15.283Z,5.92
2022-10-20T03:54:42.885Z,5.75
2022-10-20T03:57:10.207Z,6.82
2022-10-20T03:59:37.614Z,5.99
2022-10-20T04:02:05.310Z,5.84
2022-10-20T04:04:32.994Z,5.79
2022-10-20T04:07:00.304Z,5.39
2022-10-20T04:09:27.642Z,5.26
2022-10-20T04:11:55.290Z,5.48
2022-10-20T04:14:22.687Z,5.22
2022-10-20T04:16:50.128Z,5.42
2022-10-20T04:19:17.723Z,5.31
2022-10-20T04:21:45.065Z,5.29
2022-10-20T04:24:12.369Z,5.50
2022-10-20T04:26:40.053Z,5.42
2022-10-20T04:29:07.455Z,5.39
2022-10-20T04:31:34.809Z,5.29
2022-10-20T04:34:02.468Z,5.19
2022-10-20T04:36:29.785Z,5.56
2022-10-20T04:38:57.112Z,5.37
2022-10-20T04:41:24.667Z,5.60
2022-10-20T04:43:52.551Z,5.29
2022-10-20T04:46:20.040Z,5.13
2022-10-20T04:48:47.637Z,6.28
2022-10-20T04:51:15.824Z,5.55
2022-10-20T04:53:43.225Z,5.94
2022-10-20T04:56:13.942Z,7.28
2022-10-20T04:58:41.308Z,7.51
2022-10-20T05:01:10.350Z,7.71
2022-10-20T05:03:37.950Z,7.08
2022-10-20T05:06:12.929Z,6.37
2022-10-20T05:08:41.855Z,5.39
2022-10-20T05:11:09.520Z,5.38
2022-10-20T05:13:37.347Z,5.23
2022-10-20T05:16:06.224Z,4.93
2022-10-20T05:18:34.319Z,5.17
2022-10-20T05:21:13.473Z,5.34
2022-10-20T05:23:41.834Z,5.35
2022-10-20T05:26:15.315Z,5.22
2022-10-20T05:28:44.913Z,4.98
2022-10-20T05:31:12.579Z,4.95
2022-10-20T05:33:48.293Z,5.24
2022-10-20T05:36:19.461Z,5.42
2022-10-20T05:38:50.858Z,6.23
2022-10-20T05:41:21.445Z,6.08
2022-10-20T05:44:00.190Z,5.91
2022-10-20T05:46:31.432Z,6.63
2022-10-20T05:49:00.522Z,7.23
2022-10-20T05:51:32.027Z,7.43
2022-10-20T05:53:59.731Z,7.97
2022-10-20T05:56:29.189Z,6.22
2022-10-20T05:58:57.621Z,6.45
2022-10-20T06:01:39.440Z,6.84
2022-10-20T06:04:10.656Z,6.34
2022-10-20T06:06:38.014Z,6.68
2022-10-20T06:09:07.700Z,6.95
2022-10-20T06:11:39.292Z,7.23
2022-10-20T06:14:08.129Z,6.48
2022-10-20T06:16:36.305Z,7.50
2022-10-20T06:19:03.984Z,6.95
2022-10-20T06:21:32.903Z,7.54
2022-10-20T06:24:01.917Z,7.96
2022-10-20T06:26:30.045Z,8.30
2022-10-20T06:29:03.557Z,8.43
2022-10-20T06:31:40.410Z,8.55
2022-10-20T06:34:09.827Z,8.54
2022-10-20T06:36:38.274Z,8.55
2022-10-20T06:39:07.318Z,8.51
2022-10-20T06:41:35.284Z,8.73
2022-10-20T06:44:03.554Z,8.60
2022-10-20T06:46:33.431Z,8.83
2022-10-20T06:49:01.752Z,9.14
2022-10-20T06:51:29.479Z,8.91
2022-10-20T06:53:56.915Z,9.14
2022-10-20T06:56:27.071Z,8.89
2022-10-20T06:58:56.034Z,8.98
2022-10-20T07:01:37.072Z,9.32
2022-10-20T07:04:07.313Z,9.24
2022-10-20T07:06:37.079Z,9.47
2022-10-20T07:09:08.438Z,9.58
2022-10-20T07:11:36.246Z,9.26
2022-10-20T07:14:04.299Z,9.38
2022-10-20T07:16:33.821Z,9.56
2022-10-20T07:19:02.028Z,10.04
2022-10-20T07:21:34.659Z,10.04
2022-10-20T07:24:04.986Z,9.92
2022-10-20T07:26:34.496Z,10.28
2022-10-20T07:29:03.776Z,10.36
2022-10-20T07:31:33.729Z,10.41
2022-10-20T07:34:13.054Z,10.92
2022-10-20T07:36:49.336Z,10.78
2022-10-20T07:39:16.734Z,10.75
2022-10-20T07:41:47.201Z,10.42
2022-10-20T07:44:15.101Z,10.36
2022-10-20T07:46:42.411Z,10.67
2022-10-20T07:51:57.418Z,10.86
2022-10-20T07:54:24.788Z,11.07
2022-10-20T07:56:52.137Z,11.57
2022-10-20T07:59:19.820Z,11.12
2022-10-20T08:01:47.288Z,10.72
2022-10-20T08:04:15.025Z,10.82
2022-10-20T08:06:42.368Z,11.52
2022-10-20T08:09:09.747Z,11.79
2022-10-20T08:11:37.408Z,11.89
2022-10-20T08:14:04.750Z,12.68
2022-10-20T08:19:26.280Z,11.80
2022-10-20T08:21:53.640Z,11.23
2022-10-20T08:24:21.403Z,11.05
2022-10-20T08:26:48.772Z,11.52
2022-10-20T08:29:16.102Z,12.38
2022-10-20T08:31:44.215Z,12.19
2022-10-20T08:34:11.702Z,12.42
2022-10-20T08:36:39.069Z,12.45
2022-10-20T08:39:06.761Z,12.77
2022-10-20T08:42:07.532Z,13.20
2022-10-20T08:44:34.596Z,12.31
2022-10-20T08:47:03.653Z,12.71
2022-10-20T08:49:33.281Z,13.30
2022-10-20T08:52:01.377Z,13.48
2022-10-20T08:54:29.031Z,13.62
2022-10-20T08:56:56.785Z,13.72
2022-10-20T08:59:29.114Z,13.94
2022-10-20T09:01:57.674Z,13.43
2022-10-20T09:04:29.912Z,13.92
2022-10-20T09:07:00.476Z,14.44
2022-10-20T09:09:30.494Z,13.73
2022-10-20T09:12:04.764Z,14.66
2022-10-20T09:14:35.461Z,14.52
2022-10-20T09:17:06.021Z,13.49
2022-10-20T09:19:36.032Z,13.91
2022-10-20T09:22:07.247Z,14.54
2022-10-20T09:24:35.630Z,14.48
2022-10-20T09:27:20.087Z,15.30
2022-10-20T09:29:47.743Z,15.65
2022-10-20T09:32:51.183Z,15.17
2022-10-20T09:35:20.863Z,15.22
2022-10-20T09:37:54.517Z,15.27
2022-10-20T09:40:22.747Z,14.12
2022-10-20T09:43:03.185Z,14.68
2022-10-20T09:45:32.193Z,14.70
2022-10-20T09:48:03.964Z,15.54
2022-10-20T09:50:37.451Z,14.39
2022-10-20T09:53:07.670Z,14.71
2022-10-20T09:55:36.889Z,14.46
2022-10-20T09:58:05.148Z,14.47
2022-10-20T10:00:45.388Z,14.97
2022-10-20T10:03:21.539Z,14.59
2022-10-20T10:05:53.255Z,14.46
2022-10-20T10:08:23.470Z,14.96
2022-10-20T10:11:00.045Z,15.52
2022-10-20T10:13:29.943Z,15.21
2022-10-20T10:16:11.824Z,15.38
2022-10-20T10:18:39.477Z,14.92
2022-10-20T10:21:09.493Z,14.79
2022-10-20T10:23:50.438Z,15.07
2022-10-20T10:26:52.071Z,15.76
2022-10-20T10:29:31.519Z,16.05
2022-10-20T10:32:03.674Z,15.42
2022-10-20T10:34:45.362Z,16.41
2022-10-20T10:37:15.066Z,16.56
2022-10-20T10:39:42.800Z,17.14
2022-10-20T10:42:31.957Z,16.35
2022-10-20T10:45:29.752Z,16.70
2022-10-20T10:48:14.840Z,16.51
2022-10-20T10:50:52.933Z,16.51
2022-10-20T10:53:32.104Z,17.20
2022-10-20T10:56:21.371Z,17.35
2022-10-20T10:58:58.824Z,16.11
2022-10-20T11:01:40.601Z,16.58
2022-10-20T11:04:33.294Z,16.15
2022-10-20T11:07:23.434Z,17.41
2022-10-20T11:09:56.718Z,17.74
2022-10-20T11:12:42.895Z,16.85
2022-10-20T11:15:28.971Z,16.19
2022-10-20T11:18:34.429Z,16.27
2022-10-20T11:21:20.331Z,16.69
2022-10-20T11:24:15.283Z,16.42
2022-10-20T11:26:47.748Z,15.83
2022-10-20T11:29:37.891Z,16.08
2022-10-20T11:32:12.337Z,16.03
2022-10-20T11:35:07.763Z,17.47
2022-10-20T11:37:45.490Z,17.45
2022-10-20T11:40:29.909Z,18.18
2022-10-20T11:43:13.354Z,17.48
2022-10-20T11:45:54.611Z,18.14
2022-10-20T11:48:29.133Z,18.09
2022-10-20T11:51:08.984Z,17.33
2022-10-20T11:53:45.965Z,16.99
2022-10-20T11:56:38.545Z,16.79
2022-10-20T11:59:48.143Z,16.22
2022-10-20T12:02:40.426Z,16.85
2022-10-20T12:05:47.827Z,16.75
2022-10-20T12:09:03.195Z,16.74
2022-10-20T12:11:39.513Z,17.15
2022-10-20T12:14:15.647Z,17.38
2022-10-20T12:16:52.040Z,17.30
2022-10-20T12:19:35.344Z,16.58
2022-10-20T12:22:39.179Z,16.58
2022-10-20T12:25:06.536Z,17.30
2022-10-20T12:27:34.799Z,17.01
2022-10-20T12:30:50.546Z,15.94
2022-10-20T12:33:19.927Z,16.24
2022-10-20T12:36:29.951Z,16.65
2022-10-20T12:39:12.620Z,16.95
2022-10-20T12:41:45.860Z,17.17
2022-10-20T12:44:17.963Z,16.73
2022-10-20T12:46:55.549Z,16.55
2022-10-20T12:49:35.418Z,17.48
2022-10-20T12:52:03.392Z,18.22
2022-10-20T12:54:35.268Z,17.56
2022-10-20T12:57:06.542Z,17.84
2022-10-20T12:59:38.153Z,18.56
2022-10-20T13:02:08.434Z,16.68
2022-10-20T13:05:01.484Z,16.81
2022-10-20T13:07:46.957Z,16.85
2022-10-20T13:10:26.845Z,16.44
2022-10-20T13:12:58.521Z,17.23
2022-10-20T13:15:26.522Z,16.44
2022-10-20T13:17:58.639Z,16.68
2022-10-20T13:20:37.639Z,16.89
2022-10-20T13:23:05.123Z,17.21
2022-10-20T13:25:36.356Z,17.32
2022-10-20T13:28:07.883Z,17.03
2022-10-20T13:30:36.288Z,17.69
2022-10-20T13:36:08.496Z,17.99
2022-10-20T13:38:35.696Z,17.62
2022-10-20T13:41:33.375Z,18.23
2022-10-20T13:44:19.616Z,18.34
2022-10-20T13:47:08.268Z,17.26
2022-10-20T13:50:06.228Z,17.02
2022-10-20T13:52:37.398Z,16.85
2022-10-20T13:55:06.841Z,16.90
2022-10-20T13:57:35.664Z,16.67
2022-10-20T14:00:16.936Z,16.57
2022-10-20T14:02:57.363Z,16.79
2022-10-20T14:05:25.531Z,16.40
2022-10-20T14:07:54.996Z,16.04
2022-10-20T14:10:22.296Z,16.60
2022-10-20T14:12:49.689Z,15.77
2022-10-20T14:15:23.287Z,15.79
2022-10-20T14:18:02.977Z,16.49
2022-10-20T14:20:32.855Z,17.14
2022-10-20T14:23:02.387Z,15.91
2022-10-20T14:25:31.463Z,16.58
2022-10-20T14:27:59.850Z,17.08
2022-10-20T14:30:28.321Z,16.97
2022-10-20T14:32:55.719Z,17.29
2022-10-20T14:35:29.693Z,17.34
2022-10-20T14:38:17.875Z,16.44
2022-10-20T14:40:54.306Z,16.93
2022-10-20T14:43:27.094Z,16.51
2022-10-20T14:45:56.859Z,16.46
2022-10-20T14:48:25.490Z,17.35
2022-10-20T14:50:54.129Z,17.40
2022-10-20T14:53:32.139Z,17.25
2022-10-20T14:56:02.603Z,17.55
2022-10-20T14:58:33.175Z,17.60
2022-10-20T15:01:28.058Z,16.93
2022-10-20T15:04:10.810Z,17.10
2022-10-20T15:06:38.270Z,17.09
2022-10-20T15:09:07.097Z,17.44
2022-10-20T15:11:34.510Z,17.76
2022-10-20T15:14:01.872Z,16.97
2022-10-20T15:16:45.108Z,16.81
2022-10-20T15:19:31.636Z,16.83
2022-10-20T15:22:08.680Z,17.02
2022-10-20T15:24:36.654Z,16.94
2022-10-20T15:27:05.061Z,17.00
2022-10-20T15:29:33.334Z,16.84
2022-10-20T15:32:00.878Z,16.86
2022-10-20T15:34:28.524Z,16.86
2022-10-20T15:36:55.904Z,16.21
2022-10-20T15:39:23.275Z,16.33
2022-10-20T15:41:53.759Z,16.26
2022-10-20T15:44:22.402Z,16.17
2022-10-20T15:46:53.434Z,16.33
2022-10-20T15:49:21.528Z,16.08
2022-10-20T15:51:50.576Z,15.81
2022-10-20T15:54:20.224Z,15.74
2022-10-20T15:56:48.349Z,15.47
2022-10-20T15:59:15.876Z,15.32
2022-10-20T16:01:43.436Z,15.32
2022-10-20T16:04:23.809Z,14.94
2022-10-20T16:06:57.660Z,14.60
2022-10-20T16:09:28.107Z,14.00
2022-10-20T16:11:55.470Z,14.03
2022-10-20T16:14:22.845Z,13.63
2022-10-20T16:16:50.582Z,13.50
2022-10-20T16:19:18.129Z,13.56
2022-10-20T16:21:45.661Z,12.63
2022-10-20T16:24:15.128Z,12.35
2022-10-20T16:26:42.543Z,12.47
2022-10-20T16:29:09.870Z,12.51
2022-10-20T16:31:37.780Z,12.40
2022-10-20T16:34:05.419Z,12.20
2022-10-20T16:36:32.822Z,12.68
2022-10-20T16:39:00.953Z,13.31
2022-10-20T16:41:28.290Z,12.45
2022-10-20T16:44:00.128Z,11.83
2022-10-20T16:46:29.003Z,11.80
2022-10-20T16:48:57.330Z,12.34
2022-10-20T16:51:24.846Z,11.75
2022-10-20T16:53:55.709Z,11.45
2022-10-20T16:56:25.725Z,11.50
2022-10-20T16:58:53.321Z,11.44
2022-10-20T17:01:21.968Z,11.46
2022-10-20T17:03:51.672Z,11.70
2022-10-20T17:06:21.813Z,11.71
2022-10-20T17:08:49.402Z,11.54
2022-10-20T17:11:19.318Z,11.63
2022-10-20T17:13:47.139Z,11.52
2022-10-20T17:16:17.419Z,11.62
2022-10-20T17:18:45.153Z,11.61
2022-10-20T17:21:14.707Z,11.78
2022-10-20T17:23:44.231Z,11.97
2022-10-20T17:26:20.553Z,12.13
2022-10-20T17:28:49.465Z,12.09
2022-10-20T17:31:18.490Z,12.06
2022-10-20T17:33:46.616Z,12.05
2022-10-20T17:36:15.131Z,12.12
2022-10-20T17:38:43.553Z,12.19
2022-10-20T17:41:13.359Z,12.06
2022-10-20T17:43:41.819Z,11.63
2022-10-20T17:46:12.890Z,11.19
2022-10-20T17:48:41.482Z,10.74
2022-10-20T17:51:13.395Z,10.38
2022-10-20T17:53:45.350Z,10.36
2022-10-20T17:56:28.112Z,10.40
2022-10-20T17:58:57.367Z,10.21
2022-10-20T18:01:33.908Z,10.29
2022-10-20T18:04:03.321Z,9.91
2022-10-20T18:06:34.587Z,9.87
2022-10-20T18:09:07.760Z,9.71
2022-10-20T18:11:36.058Z,9.57
2022-10-20T18:14:04.624Z,9.53
2022-10-20T18:16:34.008Z,8.78
2022-10-20T18:19:01.857Z,8.70
2022-10-20T18:21:31.683Z,8.36
2022-10-20T18:24:04.923Z,8.23
2022-10-20T18:26:35.559Z,8.24
2022-10-20T18:29:05.508Z,8.30
2022-10-20T18:31:37.894Z,8.37
2022-10-20T18:34:07.567Z,8.37
2022-10-20T18:36:39.111Z,8.51
2022-10-20T18:39:28.547Z,8.87
2022-10-20T18:41:56.648Z,9.03
2022-10-20T18:44:24.928Z,9.05
2022-10-20T18:46:57.832Z,8.80
2022-10-20T18:49:26.494Z,8.91
2022-10-20T18:51:54.326Z,8.56
2022-10-20T18:54:24.559Z,8.22
2022-10-20T18:56:52.983Z,8.23
2022-10-20T18:59:24.948Z,8.07
2022-10-20T19:01:53.073Z,8.12
2022-10-20T19:04:21.692Z,8.05
2022-10-20T19:06:49.629Z,8.22
2022-10-20T19:09:21.504Z,8.07
2022-10-20T19:14:18.521Z,8.20
2022-10-20T19:16:50.186Z,8.24
2022-10-20T19:19:27.398Z,8.51
2022-10-20T19:21:55.432Z,8.66
2022-10-20T19:24:24.573Z,8.72
2022-10-20T19:29:46.794Z,9.26
2022-10-20T19:32:17.616Z,9.00
2022-10-20T19:34:45.782Z,8.43
2022-10-20T19:37:13.485Z,7.97
2022-10-20T19:39:42.325Z,8.44
2022-10-20T19:42:11.365Z,8.04
2022-10-20T19:44:40.168Z,8.37
2022-10-20T19:47:08.512Z,8.40
2022-10-20T19:49:36.251Z,8.16
2022-10-20T19:52:05.414Z,8.56
2022-10-20T19:54:33.496Z,8.97
2022-10-20T19:57:01.489Z,9.48
2022-10-20T19:59:29.633Z,9.28
2022-10-20T20:01:57.511Z,9.35
2022-10-20T20:04:25.661Z,8.52
2022-10-20T20:06:54.725Z,8.12
2022-10-20T20:09:23.978Z,7.75
2022-10-20T20:11:52.080Z,8.11
2022-10-20T20:14:20.349Z,8.29
2022-10-20T20:16:49.413Z,8.33
2022-10-20T20:19:18.141Z,8.21
2022-10-20T20:21:46.252Z,8.15
2022-10-20T20:24:14.722Z,8.14
2022-10-20T20:26:44.561Z,8.39
2022-10-20T20:29:12.270Z,8.59
2022-10-20T20:31:40.649Z,8.17
2022-10-20T20:34:08.729Z,8.65
2022-10-20T20:36:36.130Z,8.75
2022-10-20T20:39:03.499Z,9.21
2022-10-20T20:41:31.945Z,9.08
2022-10-20T20:44:02.927Z,9.04
2022-10-20T20:46:34.017Z,8.89
2022-10-20T20:49:01.379Z,8.92
2022-10-20T20:51:33.271Z,9.33
2022-10-20T20:54:01.610Z,9.17
2022-10-20T20:56:29.041Z,9.07
2022-10-20T20:58:56.425Z,9.00
2022-10-20T21:01:29.040Z,9.20
2022-10-20T21:04:01.385Z,8.90
2022-10-20T21:06:37.990Z,8.40
2022-10-20T21:09:17.016Z,8.20
2022-10-20T21:11:44.647Z,8.44
2022-10-20T21:14:11.955Z,8.55
2022-10-20T21:16:39.266Z,8.90
2022-10-20T21:19:09.565Z,8.41
2022-10-20T21:21:39.097Z,7.88
2022-10-20T21:24:06.932Z,8.12
2022-10-20T21:26:34.248Z,7.90
2022-10-20T21:29:01.592Z,7.92
2022-10-20T21:31:30.362Z,8.04
2022-10-20T21:34:06.754Z,8.35
2022-10-20T21:36:35.489Z,8.32
2022-10-20T21:39:05.341Z,8.38
2022-10-20T21:41:34.870Z,8.54
2022-10-20T21:44:04.157Z,8.66
2022-10-20T21:46:33.266Z,8.28
2022-10-20T21:49:05.019Z,8.49
2022-10-20T21:51:37.613Z,8.28
2022-10-20T21:54:11.796Z,8.27
2022-10-20T21:56:57.784Z,8.39
2022-10-20T21:59:26.048Z,8.43
2022-10-20T22:01:55.352Z,8.22
2022-10-20T22:04:25.383Z,8.01
2022-10-20T22:06:53.390Z,8.10
2022-10-20T22:09:21.311Z,7.78
2022-10-20T22:11:55.238Z,8.10
2022-10-20T22:14:23.447Z,8.01
2022-10-20T22:16:51.648Z,8.11
2022-10-20T22:19:21.756Z,8.05
2022-10-20T22:21:50.874Z,8.07
2022-10-20T22:24:20.554Z,8.15
2022-10-20T22:26:48.770Z,7.80
2022-10-20T22:29:17.620Z,7.88
2022-10-20T22:31:45.235Z,7.81
2022-10-20T22:34:12.935Z,7.67
2022-10-20T22:36:40.872Z,7.63
2022-10-20T22:39:08.934Z,7.34
2022-10-20T22:41:36.594Z,7.43
2022-10-20T22:44:04.325Z,7.67
2022-10-20T22:46:31.974Z,7.65
2022-10-20T22:51:31.928Z,7.91
2022-10-20T22:53:59.315Z,7.44
2022-10-20T22:56:26.780Z,7.31
2022-10-20T22:58:54.524Z,7.40
2022-10-20T23:01:23.540Z,7.39
2022-10-20T23:03:51.104Z,7.32
2022-10-20T23:06:24.291Z,7.43
2022-10-20T23:08:53.765Z,6.46
2022-10-20T23:11:22.208Z,6.83
2022-10-20T23:13:51.043Z,6.48
2022-10-20T23:16:18.899Z,6.49
2022-10-20T23:18:47.187Z,6.93
2022-10-20T23:21:14.661Z,7.14
2022-10-20T23:23:42.202Z,6.99
2022-10-20T23:26:10.121Z,6.82
2022-10-20T23:28:38.115Z,6.89
2022-10-20T23:31:14.211Z,6.29
2022-10-20T23:33:43.423Z,6.22
2022-10-20T23:36:12.182Z,6.81
2022-10-20T23:38:39.540Z,7.15
2022-10-20T23:41:09.053Z,6.98
2022-10-20T23:43:39.284Z,6.81
2022-10-20T23:46:07.611Z,7.09
2022-10-20T23:48:39.162Z,7.18
2022-10-20T23:51:08.307Z,6.88
2022-10-20T23:53:35.772Z,7.05
2022-10-20T23:56:03.428Z,7.14
2022-10-20T23:58:31.144Z,7.19
